Time;durP1;ratioP1;P1;durP2;ratioP2;P2;SDS_P1;SDS_P2;PMS_P1;PMS_P2;Temp;Humidity;BMP_temperature;BMP_pressure;BME280_temperature;BME280_humidity;BME280_pressure;Samples;Min_cycle;Max_cycle;Signal;HPM_P1;HPM_P2
2023/08/31 00:02:21;;;;;;;6.13;3.35;;;;;;;12.62;100.00;100708.03;5028939;28;20046;-72
2023/08/31 00:04:47;;;;;;;7.32;3.53;;;;;;;12.68;100.00;100717.41;5028342;28;20144;-72
2023/08/31 00:07:12;;;;;;;7.55;3.58;;;;;;;12.74;100.00;100702.72;5025195;28;20033;-72
2023/08/31 00:09:39;;;;;;;7.22;3.53;;;;;;;12.64;100.00;100706.06;5027708;28;20101;-72
2023/08/31 00:12:05;;;;;;;4.18;3.70;;;;;;;12.67;100.00;100711.22;5025873;28;20046;-72
2023/08/31 00:14:32;;;;;;;4.28;3.25;;;;;;;12.59;100.00;100710.91;5023152;28;20099;-72
2023/08/31 00:16:58;;;;;;;4.72;3.30;;;;;;;12.54;100.00;100709.53;5027272;28;20120;-72
2023/08/31 00:19:23;;;;;;;5.25;3.90;;;;;;;12.53;100.00;100715.88;5029444;28;20064;-71
2023/08/31 00:21:49;;;;;;;7.05;3.63;;;;;;;12.59;100.00;100710.91;5029598;28;20039;-71
2023/08/31 00:24:15;;;;;;;6.28;3.67;;;;;;;12.62;100.00;100717.88;5028534;28;20044;-72
2023/08/31 00:26:42;;;;;;;7.30;3.55;;;;;;;12.58;100.00;100719.91;5023827;28;20044;-72
2023/08/31 00:29:10;;;;;;;8.15;3.28;;;;;;;12.54;100.00;100717.56;5029192;28;20048;-72
2023/08/31 00:31:37;;;;;;;4.18;3.78;;;;;;;12.53;100.00;100718.53;5024314;28;20041;-72
2023/08/31 00:34:06;;;;;;;6.53;3.88;;;;;;;12.54;100.00;100718.44;5029634;28;20064;-72
2023/08/31 00:36:32;;;;;;;6.28;3.53;;;;;;;12.50;100.00;100716.97;5023678;28;20029;-72
2023/08/31 00:39:05;;;;;;;4.50;3.55;;;;;;;12.49;100.00;100715.22;5031054;28;20144;-71
2023/08/31 00:41:31;;;;;;;5.28;3.13;;;;;;;12.47;100.00;100706.47;5018411;28;20099;-72
2023/08/31 00:43:56;;;;;;;6.78;3.53;;;;;;;12.49;100.00;100709.88;5028925;28;20045;-72
2023/08/31 00:46:22;;;;;;;6.90;3.97;;;;;;;12.27;100.00;100710.59;5022994;28;20103;-72
2023/08/31 00:48:48;;;;;;;7.18;4.15;;;;;;;12.33;100.00;100711.97;5042133;28;20041;-72
2023/08/31 00:51:15;;;;;;;9.50;4.78;;;;;;;12.31;100.00;100714.78;5020618;28;20037;-72
2023/08/31 00:53:41;;;;;;;6.80;4.30;;;;;;;12.38;100.00;100704.47;5024878;28;20136;-71
2023/08/31 00:56:08;;;;;;;9.98;4.82;;;;;;;12.27;100.00;100704.41;5030443;28;20715;-72
2023/08/31 00:58:33;;;;;;;12.88;5.65;;;;;;;12.30;100.00;100701.50;5029277;28;20349;-71
2023/08/31 01:01:15;;;;;;;11.02;6.45;;;;;;;12.18;100.00;100706.78;5026915;28;20503;-71
2023/08/31 01:03:57;;;;;;;8.85;6.55;;;;;;;12.31;100.00;100701.41;5019083;28;20118;-71
2023/08/31 01:06:47;;;;;;;9.57;6.32;;;;;;;12.26;100.00;100702.72;5046815;28;20209;-72
2023/08/31 01:09:36;;;;;;;9.55;7.43;;;;;;;12.25;100.00;100720.56;5028363;28;20134;-72
2023/08/31 01:12:11;;;;;;;11.02;7.43;;;;;;;12.26;100.00;100718.75;5023488;28;20045;-72
2023/08/31 01:15:06;;;;;;;19.90;9.85;;;;;;;12.30;100.00;100718.41;5033579;28;20078;-72
2023/08/31 01:17:36;;;;;;;11.00;7.47;;;;;;;12.30;100.00;100707.72;5036893;28;20054;-72
2023/08/31 01:20:06;;;;;;;16.10;8.10;;;;;;;12.19;100.00;100716.50;5043174;28;20131;-72
2023/08/31 01:22:42;;;;;;;18.23;8.98;;;;;;;12.16;100.00;100719.41;5034068;28;20067;-72
2023/08/31 01:25:09;;;;;;;19.15;10.52;;;;;;;12.10;100.00;100719.84;5036307;28;20080;-72
2023/08/31 01:27:38;;;;;;;19.77;10.95;;;;;;;12.05;100.00;100721.13;5024107;28;20121;-72
2023/08/31 01:30:04;;;;;;;21.25;12.95;;;;;;;12.13;100.00;100724.13;5031825;28;20038;-72
2023/08/31 01:32:31;;;;;;;23.80;13.10;;;;;;;12.10;100.00;100727.03;5023933;28;20144;-72
2023/08/31 01:34:57;;;;;;;21.17;13.32;;;;;;;12.12;100.00;100733.09;5028540;28;20041;-72
2023/08/31 01:37:48;;;;;;;21.92;14.23;;;;;;;12.05;100.00;100748.72;5025772;28;20194;-72
2023/08/31 01:40:23;;;;;;;26.83;15.43;;;;;;;12.06;100.00;100741.56;5030408;28;20034;-72
2023/08/31 01:42:50;;;;;;;25.30;16.27;;;;;;;12.09;100.00;100734.16;5029861;28;20037;-73
2023/08/31 01:45:22;;;;;;;24.60;16.05;;;;;;;12.15;100.00;100744.44;5030931;28;20046;-72
2023/08/31 01:47:48;;;;;;;20.80;14.73;;;;;;;12.10;100.00;100740.38;5031512;28;20041;-72
2023/08/31 01:50:14;;;;;;;23.65;17.50;;;;;;;12.08;100.00;100740.47;5030731;28;20127;-71
2023/08/31 01:52:40;;;;;;;24.60;16.42;;;;;;;12.06;100.00;100744.25;5028274;28;20044;-72
2023/08/31 01:55:06;;;;;;;25.48;17.05;;;;;;;11.94;100.00;100740.59;5042643;28;20096;-71
2023/08/31 01:57:32;;;;;;;28.55;19.80;;;;;;;12.01;100.00;100738.38;5024975;28;20076;-72
2023/08/31 02:00:25;;;;;;;23.23;17.48;;;;;;;12.12;100.00;100739.31;5026922;28;20664;-72
2023/08/31 02:02:51;;;;;;;33.92;18.52;;;;;;;12.00;100.00;100734.84;5058709;28;20072;-72
2023/08/31 02:05:17;;;;;;;25.65;17.38;;;;;;;12.05;100.00;100735.38;5029296;28;20088;-71
2023/08/31 02:07:43;;;;;;;29.42;19.70;;;;;;;12.16;100.00;100735.44;5045392;28;20105;-71
2023/08/31 02:10:09;;;;;;;23.48;17.33;;;;;;;12.26;100.00;100727.63;5028157;28;20037;-71
2023/08/31 02:12:36;;;;;;;23.80;15.70;;;;;;;12.29;100.00;100726.53;5024092;28;20781;-72
2023/08/31 02:15:06;;;;;;;31.42;18.70;;;;;;;12.25;100.00;100735.72;5027831;28;20041;-72
2023/08/31 02:17:33;;;;;;;28.55;18.40;;;;;;;12.30;100.00;100738.94;5042837;28;20052;-72
2023/08/31 02:19:59;;;;;;;25.58;18.52;;;;;;;12.33;100.00;100742.25;5029108;28;20113;-72
2023/08/31 02:22:24;;;;;;;29.73;18.00;;;;;;;12.39;100.00;100741.78;5032100;28;20038;-72
2023/08/31 02:24:50;;;;;;;26.20;18.17;;;;;;;12.47;100.00;100741.25;5030967;28;20143;-71
2023/08/31 02:27:17;;;;;;;29.42;17.48;;;;;;;12.57;100.00;100742.28;5046033;28;20928;-72
2023/08/31 02:29:42;;;;;;;29.58;18.38;;;;;;;12.59;100.00;100735.00;5063761;28;20115;-71
2023/08/31 02:32:08;;;;;;;33.38;19.27;;;;;;;12.52;100.00;100741.75;5031775;28;20044;-72
2023/08/31 02:34:33;;;;;;;29.73;18.25;;;;;;;12.54;100.00;100736.28;5026777;28;20029;-72
2023/08/31 02:36:59;;;;;;;26.30;18.35;;;;;;;12.58;100.00;100735.09;5014864;28;20037;-72
2023/08/31 02:39:27;;;;;;;26.63;18.17;;;;;;;12.57;100.00;100739.59;5023157;28;20029;-72
2023/08/31 02:41:52;;;;;;;29.88;18.70;;;;;;;12.54;100.00;100736.28;5025417;28;20030;-72
2023/08/31 02:44:18;;;;;;;30.75;18.75;;;;;;;12.64;100.00;100737.31;5022223;28;20038;-71
2023/08/31 02:46:44;;;;;;;23.17;17.75;;;;;;;12.76;100.00;100743.63;5030960;28;20049;-72
2023/08/31 02:49:11;;;;;;;27.98;19.73;;;;;;;12.74;100.00;100741.03;5063538;28;20064;-72
2023/08/31 02:51:36;;;;;;;26.98;20.10;;;;;;;12.74;100.00;100742.84;5054804;28;20045;-71
2023/08/31 02:54:03;;;;;;;29.90;19.90;;;;;;;12.81;100.00;100739.63;5030761;28;20115;-71
2023/08/31 02:56:29;;;;;;;26.20;18.17;;;;;;;12.83;100.00;100735.00;5046820;28;20605;-72
2023/08/31 02:58:55;;;;;;;29.52;18.50;;;;;;;12.88;100.00;100738.19;5030786;28;20115;-71
2023/08/31 03:01:23;;;;;;;21.75;15.63;;;;;;;12.91;100.00;100724.59;5030718;28;20042;-72
2023/08/31 03:03:49;;;;;;;26.35;17.05;;;;;;;12.80;100.00;100726.34;5023490;28;20087;-73
2023/08/31 03:06:15;;;;;;;28.83;18.42;;;;;;;12.83;100.00;100735.00;5030296;28;20096;-72
2023/08/31 03:08:41;;;;;;;26.40;16.23;;;;;;;12.89;100.00;100739.88;5029141;28;20077;-72
2023/08/31 03:11:07;;;;;;;22.42;17.10;;;;;;;12.93;100.00;100745.88;5043741;28;20748;-72
2023/08/31 03:13:33;;;;;;;26.90;17.92;;;;;;;13.04;100.00;100737.03;5046091;28;20045;-72
2023/08/31 03:16:00;;;;;;;27.63;19.02;;;;;;;13.04;100.00;100737.03;5029937;28;20096;-72
2023/08/31 03:18:26;;;;;;;21.17;16.17;;;;;;;13.09;100.00;100741.06;5025833;28;20034;-72
2023/08/31 03:20:52;;;;;;;30.30;19.52;;;;;;;13.13;100.00;100744.38;5030586;28;20141;-72
2023/08/31 03:23:17;;;;;;;27.65;18.35;;;;;;;13.17;100.00;100741.34;5061507;28;20041;-72
2023/08/31 03:25:43;;;;;;;24.13;18.13;;;;;;;13.24;100.00;100748.94;5062202;28;20042;-71
2023/08/31 03:28:09;;;;;;;26.23;19.73;;;;;;;13.27;100.00;100740.69;5031382;28;20048;-72
2023/08/31 03:30:36;;;;;;;29.30;19.67;;;;;;;13.32;100.00;100744.72;5056074;28;20028;-71
2023/08/31 03:33:02;;;;;;;23.45;17.50;;;;;;;13.34;100.00;100745.44;5027347;28;20059;-72
2023/08/31 03:35:28;;;;;;;26.13;19.67;;;;;;;13.33;100.00;100754.47;5027574;28;20029;-72
2023/08/31 03:37:55;;;;;;;31.23;19.70;;;;;;;13.34;100.00;100747.28;5014235;28;20045;-72
2023/08/31 03:40:22;;;;;;;32.83;20.42;;;;;;;13.31;100.00;100747.53;5023756;28;20038;-72
2023/08/31 03:42:50;;;;;;;24.67;18.42;;;;;;;13.32;100.00;100744.72;5050412;28;20069;-72
2023/08/31 03:45:16;;;;;;;31.27;19.77;;;;;;;13.35;100.00;100738.25;5026547;28;20041;-72
2023/08/31 03:47:42;;;;;;;30.88;20.27;;;;;;;13.38;100.00;100730.00;5027696;28;20045;-73
2023/08/31 03:50:08;;;;;;;31.65;20.00;;;;;;;13.30;100.00;100725.22;5023222;28;20044;-72
2023/08/31 03:52:34;;;;;;;33.53;21.02;;;;;;;13.34;100.00;100729.38;5026971;28;20684;-72
2023/08/31 03:55:00;;;;;;;31.13;19.38;;;;;;;13.24;100.00;100716.81;5056269;28;20041;-72
2023/08/31 03:57:26;;;;;;;30.92;21.92;;;;;;;13.10;100.00;100728.53;5025160;28;20049;-72
2023/08/31 03:59:56;;;;;;;34.55;23.15;;;;;;;13.08;100.00;100728.66;5044258;28;20040;-72
2023/08/31 04:02:23;;;;;;;29.67;19.23;;;;;;;12.95;100.00;100722.50;5025799;28;20034;-72
2023/08/31 04:04:50;;;;;;;32.60;21.40;;;;;;;13.00;100.00;100730.19;5022834;28;20059;-72
2023/08/31 04:07:16;;;;;;;34.40;24.15;;;;;;;12.90;100.00;100730.03;5030406;28;20096;-71
2023/08/31 04:09:41;;;;;;;34.10;23.48;;;;;;;12.75;100.00;100732.06;5024039;28;20038;-72
2023/08/31 04:12:07;;;;;;;36.38;24.17;;;;;;;12.75;100.00;100736.53;5029129;28;20813;-72
2023/08/31 04:14:32;;;;;;;36.65;23.73;;;;;;;12.57;100.00;100738.75;5056337;28;20558;-71
2023/08/31 04:16:58;;;;;;;38.30;24.63;;;;;;;12.67;100.00;100739.78;5029050;28;20033;-72
2023/08/31 04:19:24;;;;;;;33.60;23.73;;;;;;;12.65;100.00;100742.59;5030002;28;20049;-72
2023/08/31 04:21:49;;;;;;;35.42;23.85;;;;;;;12.77;100.00;100751.53;5028131;28;20033;-72
2023/08/31 04:24:15;;;;;;;35.75;22.95;;;;;;;12.83;100.00;100751.06;5029162;28;20044;-71
2023/08/31 04:26:42;;;;;;;35.80;23.08;;;;;;;12.86;100.00;100758.03;5029042;28;20042;-72
2023/08/31 04:29:08;;;;;;;36.25;23.25;;;;;;;12.91;100.00;100753.19;5024558;28;20107;-72
2023/08/31 04:31:33;;;;;;;32.92;23.88;;;;;;;12.92;100.00;100749.53;5042491;28;20480;-71
2023/08/31 04:33:59;;;;;;;34.08;22.42;;;;;;;12.89;100.00;100757.78;5028798;28;21175;-72
2023/08/31 04:36:28;;;;;;;35.85;22.80;;;;;;;12.82;100.00;100754.72;5026484;28;20086;-72
2023/08/31 04:38:54;;;;;;;35.28;24.45;;;;;;;12.85;100.00;100756.28;5029270;28;20081;-71
2023/08/31 04:41:19;;;;;;;35.92;26.00;;;;;;;12.79;100.00;100768.31;5061479;28;20046;-72
2023/08/31 04:43:47;;;;;;;39.50;24.98;;;;;;;12.81;100.00;100763.72;5043649;28;20037;-72
2023/08/31 04:46:14;;;;;;;41.38;26.45;;;;;;;12.70;100.00;100760.94;5030003;28;20045;-72
2023/08/31 04:48:40;;;;;;;35.20;25.52;;;;;;;12.81;100.00;100765.53;5030265;28;20030;-71
2023/08/31 04:51:05;;;;;;;36.72;25.17;;;;;;;12.87;100.00;100765.06;5021426;28;20029;-72
2023/08/31 04:53:31;;;;;;;38.15;26.00;;;;;;;12.85;100.00;100759.84;5029852;28;20081;-72
2023/08/31 04:55:57;;;;;;;34.63;23.48;;;;;;;12.84;100.00;100760.78;5022710;28;20056;-72
2023/08/31 04:58:22;;;;;;;40.58;26.33;;;;;;;12.78;100.00;100761.25;5024621;28;20046;-72
2023/08/31 05:00:48;;;;;;;40.88;26.27;;;;;;;12.83;100.00;100775.16;5038886;28;20041;-72
2023/08/31 05:03:14;;;;;;;40.58;25.98;;;;;;;12.81;100.00;100770.88;5029667;28;20057;-72
2023/08/31 05:05:47;;;;;;;34.85;24.48;;;;;;;12.85;100.00;100772.34;5109362;27;20648;-73
2023/08/31 05:08:12;;;;;;;37.65;24.05;;;;;;;12.91;100.00;100777.28;5105358;27;20032;-73
2023/08/31 05:10:39;;;;;;;35.88;24.90;;;;;;;12.89;100.00;100776.50;5098063;27;20051;-73
2023/08/31 05:13:05;;;;;;;37.85;24.98;;;;;;;12.91;100.00;100786.16;5089100;27;20124;-71
2023/08/31 05:15:30;;;;;;;37.28;24.52;;;;;;;12.95;100.00;100787.63;5103417;27;20036;-72
2023/08/31 05:17:56;;;;;;;40.08;26.33;;;;;;;13.05;100.00;100789.59;5105973;27;20036;-72
2023/08/31 05:20:25;;;;;;;38.10;26.13;;;;;;;13.01;100.00;100798.84;5108140;27;20071;-72
2023/08/31 05:22:50;;;;;;;38.53;26.40;;;;;;;13.05;100.00;100797.63;5104451;27;20067;-73
2023/08/31 05:25:17;;;;;;;41.13;27.63;;;;;;;13.04;100.00;100799.47;5090478;27;20552;-71
2023/08/31 05:27:43;;;;;;;42.78;27.63;;;;;;;13.03;100.00;100804.94;5104571;27;20570;-72
2023/08/31 05:30:09;;;;;;;37.92;27.45;;;;;;;13.15;100.00;100810.25;5099589;27;20543;-72
2023/08/31 05:32:35;;;;;;;38.50;26.95;;;;;;;13.28;100.00;100806.66;5108546;27;20036;-73
2023/08/31 05:35:00;;;;;;;38.35;28.00;;;;;;;13.25;100.00;100813.09;5104287;27;20036;-72
2023/08/31 05:37:26;;;;;;;39.17;26.70;;;;;;;13.24;100.00;100823.94;5108530;27;20532;-72
2023/08/31 05:39:52;;;;;;;36.65;26.70;;;;;;;13.27;100.00;100829.91;5086125;27;20037;-72
2023/08/31 05:42:18;;;;;;;40.10;26.75;;;;;;;13.28;100.00;100828.09;5088724;27;20128;-73
2023/08/31 05:44:44;;;;;;;38.63;27.55;;;;;;;13.43;100.00;100830.47;5091299;27;20041;-72
2023/08/31 05:47:10;;;;;;;41.67;27.77;;;;;;;13.52;100.00;100831.59;5073993;27;20046;-72
2023/08/31 05:49:36;;;;;;;37.35;26.52;;;;;;;13.54;100.00;100826.97;5101951;27;20485;-72
2023/08/31 05:52:02;;;;;;;37.75;26.55;;;;;;;13.63;100.00;100823.59;5082372;27;21191;-72
2023/08/31 05:54:27;;;;;;;41.25;27.45;;;;;;;13.63;100.00;100826.28;5101183;27;20036;-72
2023/08/31 05:56:53;;;;;;;39.65;26.88;;;;;;;13.67;100.00;100830.44;5101044;27;20032;-72
2023/08/31 05:59:19;;;;;;;41.83;27.48;;;;;;;13.70;100.00;100823.97;5100500;27;20148;-72
2023/08/31 06:01:45;;;;;;;44.42;29.45;;;;;;;13.70;100.00;100830.22;5103452;27;20059;-72
2023/08/31 06:04:11;;;;;;;37.75;26.55;;;;;;;13.67;100.00;100838.47;5102622;27;20631;-72
2023/08/31 06:06:37;;;;;;;44.67;28.55;;;;;;;13.62;100.00;100842.47;5103397;27;20552;-71
2023/08/31 06:09:03;;;;;;;42.28;26.80;;;;;;;13.47;100.00;100852.53;5100015;27;20500;-72
2023/08/31 06:11:32;;;;;;;41.55;27.02;;;;;;;13.53;100.00;100854.75;5084698;27;20046;-72
2023/08/31 06:13:58;;;;;;;43.33;28.63;;;;;;;13.39;100.00;100853.09;5102066;27;20106;-72
2023/08/31 06:16:24;;;;;;;40.75;27.83;;;;;;;13.43;100.00;100853.72;5090338;27;20031;-72
2023/08/31 06:18:49;;;;;;;41.70;28.83;;;;;;;13.40;100.00;100867.34;5073862;28;20854;-72
2023/08/31 06:21:16;;;;;;;39.03;27.88;;;;;;;13.45;100.00;100854.44;5085976;27;20463;-71
2023/08/31 06:23:42;;;;;;;39.00;26.92;;;;;;;13.41;100.00;100858.34;5088699;27;20040;-71
2023/08/31 06:26:08;;;;;;;42.22;27.67;;;;;;;13.55;100.00;100857.28;5081667;27;20573;-72
2023/08/31 06:28:34;;;;;;;37.85;28.00;;;;;;;13.67;100.00;100851.88;5070418;28;20028;-72
2023/08/31 06:31:00;;;;;;;43.10;30.35;;;;;;;13.78;100.00;100855.56;5081779;27;20601;-73
2023/08/31 06:33:25;;;;;;;39.55;29.40;;;;;;;13.81;100.00;100858.00;5088328;27;20041;-72
2023/08/31 06:35:51;;;;;;;41.88;29.25;;;;;;;13.86;100.00;100859.38;5087781;27;20036;-72
2023/08/31 06:38:18;;;;;;;38.90;28.38;;;;;;;14.15;100.00;100857.09;5085102;27;20065;-73
2023/08/31 06:40:47;;;;;;;34.08;24.38;;;;;;;14.32;100.00;100854.94;5102784;27;20041;-73
2023/08/31 06:43:12;;;;;;;37.55;25.58;;;;;;;14.34;100.00;100858.34;5088647;27;20032;-73
2023/08/31 06:45:38;;;;;;;37.88;25.80;;;;;;;14.55;100.00;100845.91;5090760;27;20052;-72
2023/08/31 06:48:04;;;;;;;32.25;24.98;;;;;;;14.60;100.00;100846.41;5090158;27;20040;-72
2023/08/31 06:50:30;;;;;;;34.50;25.52;;;;;;;14.48;100.00;100847.41;5086039;27;20479;-73
2023/08/31 06:52:56;;;;;;;34.80;25.05;;;;;;;14.46;100.00;100852.00;5090206;27;20132;-72
2023/08/31 06:55:21;;;;;;;32.78;24.67;;;;;;;14.74;100.00;100847.97;5084838;27;20974;-72
2023/08/31 06:57:47;;;;;;;29.75;22.70;;;;;;;15.32;100.00;100850.44;5088637;27;20482;-72
2023/08/31 07:00:13;;;;;;;25.75;22.83;;;;;;;16.26;100.00;100845.03;5089914;27;20040;-72
2023/08/31 07:02:42;;;;;;;26.33;20.42;;;;;;;16.81;100.00;100842.03;5089825;27;20135;-72
2023/08/31 07:05:08;;;;;;;24.83;17.55;;;;;;;16.78;100.00;100850.38;5088882;27;20083;-72
2023/08/31 07:07:34;;;;;;;27.80;19.70;;;;;;;16.26;100.00;100860.31;5080558;27;20040;-72
2023/08/31 07:10:00;;;;;;;27.40;20.02;;;;;;;16.04;100.00;100862.19;5085773;27;20036;-72
2023/08/31 07:12:26;;;;;;;27.70;20.52;;;;;;;15.59;100.00;100861.53;5082534;27;20516;-72
2023/08/31 07:14:51;;;;;;;34.83;20.50;;;;;;;14.91;100.00;100868.09;5071901;27;20036;-71
2023/08/31 07:17:21;;;;;;;35.08;20.73;;;;;;;14.77;100.00;100875.44;5069948;27;20135;-72
2023/08/31 07:19:47;;;;;;;29.70;20.60;;;;;;;14.67;100.00;100877.16;5069757;28;20036;-72
2023/08/31 07:22:12;;;;;;;27.65;18.92;;;;;;;14.55;100.00;100891.53;5086170;27;20039;-72
2023/08/31 07:24:38;;;;;;;29.50;21.23;;;;;;;14.58;100.00;100885.09;5084832;27;20040;-72
2023/08/31 07:27:04;;;;;;;32.70;21.63;;;;;;;14.63;100.00;100894.47;5084636;27;20476;-72
2023/08/31 07:29:31;;;;;;;32.03;22.27;;;;;;;14.86;100.00;100891.78;5089134;27;20145;-72
2023/08/31 07:31:57;;;;;;;33.35;21.55;;;;;;;14.83;100.00;100890.19;5088949;27;20554;-72
2023/08/31 07:34:23;;;;;;;28.27;20.17;;;;;;;15.20;100.00;100892.56;5087862;27;20060;-71
2023/08/31 07:36:49;;;;;;;31.27;20.98;;;;;;;15.40;100.00;100896.31;5086335;27;20062;-72
2023/08/31 07:39:19;;;;;;;31.05;19.55;;;;;;;15.19;100.00;100897.09;5083744;27;20711;-72
2023/08/31 07:41:45;;;;;;;27.90;20.35;;;;;;;15.29;100.00;100897.19;5086487;27;20085;-73
2023/08/31 07:44:11;;;;;;;27.92;18.85;;;;;;;15.32;100.00;100896.09;5086277;27;20087;-73
2023/08/31 07:46:37;;;;;;;26.75;19.17;;;;;;;15.70;100.00;100892.94;5066608;27;20787;-72
2023/08/31 07:49:03;;;;;;;27.45;19.20;;;;;;;15.66;100.00;100899.53;5072958;27;20044;-72
2023/08/31 07:51:30;;;;;;;27.98;17.60;;;;;;;15.64;100.00;100896.13;5082712;27;20078;-72
2023/08/31 07:53:55;;;;;;;20.52;15.43;;;;;;;15.50;100.00;100906.16;5088204;27;20048;-72
2023/08/31 07:56:23;;;;;;;28.00;17.67;;;;;;;15.42;100.00;100905.13;5077162;27;20028;-71
2023/08/31 07:58:50;;;;;;;24.67;15.23;;;;;;;15.32;100.00;100904.16;5086663;27;20045;-72
2023/08/31 08:01:17;;;;;;;21.27;14.88;;;;;;;15.37;100.00;100910.88;5084671;27;20024;-72
2023/08/31 08:03:43;;;;;;;24.45;15.35;;;;;;;15.65;100.00;100912.13;5077870;27;20084;-72
2023/08/31 08:06:08;;;;;;;27.70;16.48;;;;;;;16.00;100.00;100893.00;5084391;27;20260;-72
2023/08/31 08:08:34;;;;;;;22.05;14.18;;;;;;;16.38;100.00;100913.09;5066404;28;20032;-72
2023/08/31 08:11:00;;;;;;;21.35;14.57;;;;;;;16.45;100.00;100908.88;5078900;27;20028;-72
2023/08/31 08:13:25;;;;;;;20.35;13.63;;;;;;;16.42;100.00;100913.69;5073886;27;20497;-72
2023/08/31 08:15:51;;;;;;;19.25;12.50;;;;;;;16.32;100.00;100916.31;5085007;27;20389;-72
2023/08/31 08:18:17;;;;;;;25.17;13.20;;;;;;;16.28;100.00;100917.56;5085912;27;20138;-72
2023/08/31 08:20:42;;;;;;;20.52;12.07;;;;;;;16.37;100.00;100919.47;5086594;27;20036;-72
2023/08/31 08:23:08;;;;;;;18.30;11.88;;;;;;;16.52;100.00;100928.06;5062444;28;20037;-73
2023/08/31 08:25:34;;;;;;;17.20;12.20;;;;;;;16.51;100.00;100926.31;5082800;27;20131;-72
2023/08/31 08:28:00;;;;;;;15.15;10.52;;;;;;;16.11;100.00;100918.16;5078658;28;20042;-72
2023/08/31 08:30:25;;;;;;;16.02;11.35;;;;;;;15.96;100.00;100926.53;5083289;27;20109;-72
2023/08/31 08:32:51;;;;;;;21.08;12.13;;;;;;;15.89;100.00;100916.44;5085217;27;20060;-72
2023/08/31 08:35:17;;;;;;;16.95;11.18;;;;;;;16.21;100.00;100919.91;5084138;27;20089;-72
2023/08/31 08:37:42;;;;;;;18.90;11.63;;;;;;;16.44;100.00;100925.16;5086687;27;20101;-72
2023/08/31 08:40:10;;;;;;;20.02;12.02;;;;;;;16.54;100.00;100921.53;5088086;27;20043;-72
2023/08/31 08:42:41;;;;;;;16.00;11.98;;;;;;;16.33;100.00;100922.56;5087566;27;20058;-72
2023/08/31 08:45:24;;;;;;;18.98;12.45;;;;;;;16.47;100.00;100931.16;5084015;27;20135;-72
2023/08/31 08:47:51;;;;;;;24.70;14.30;;;;;;;16.72;100.00;100929.88;5083759;27;20166;-72
2023/08/31 08:50:20;;;;;;;22.30;14.30;;;;;;;16.89;100.00;100925.69;5082829;27;20185;-72
2023/08/31 08:52:46;;;;;;;22.20;14.88;;;;;;;17.21;100.00;100930.88;5085633;27;20040;-72
2023/08/31 08:55:12;;;;;;;21.48;15.77;;;;;;;18.02;100.00;100931.59;5087974;27;20042;-72
2023/08/31 08:57:39;;;;;;;21.15;15.95;;;;;;;18.43;100.00;100917.88;5072762;27;20043;-72
2023/08/31 09:00:06;;;;;;;24.67;14.23;;;;;;;18.78;100.00;100925.34;5080979;27;20063;-72
2023/08/31 09:02:32;;;;;;;23.15;14.18;;;;;;;18.67;100.00;100917.34;5087295;27;20125;-73
2023/08/31 09:04:57;;;;;;;22.73;13.98;;;;;;;18.50;100.00;100919.84;5084917;27;20125;-72
2023/08/31 09:07:24;;;;;;;19.45;13.30;;;;;;;18.56;100.00;100924.66;5082245;27;20344;-72
2023/08/31 09:09:53;;;;;;;22.98;13.02;;;;;;;18.53;100.00;100933.06;5069508;28;20036;-72
2023/08/31 09:12:22;;;;;;;20.25;12.65;;;;;;;18.55;100.00;100932.91;5084951;27;20351;-72
2023/08/31 09:15:02;;;;;;;19.52;11.88;;;;;;;18.38;100.00;100929.97;5085189;27;20037;-72
2023/08/31 09:17:43;;;;;;;16.10;11.20;;;;;;;18.57;100.00;100923.63;5067351;27;20043;-72
2023/08/31 09:20:09;;;;;;;15.23;11.15;;;;;;;18.87;100.00;100921.72;5086491;27;20040;-72
2023/08/31 09:22:35;;;;;;;17.17;10.52;;;;;;;19.08;100.00;100925.06;5085679;27;20035;-72
2023/08/31 09:25:01;;;;;;;18.02;11.20;;;;;;;19.42;100.00;100927.09;5068791;27;20122;-72
2023/08/31 09:27:27;;;;;;;18.17;10.50;;;;;;;18.85;100.00;100919.19;5085688;27;20209;-73
2023/08/31 09:29:56;;;;;;;18.38;9.85;;;;;;;18.89;100.00;100922.44;5086205;27;20088;-72
2023/08/31 09:32:21;;;;;;;16.15;9.75;;;;;;;19.14;100.00;100929.00;5079645;27;20032;-73
2023/08/31 09:34:48;;;;;;;16.30;9.82;;;;;;;18.91;100.00;100927.69;5085749;27;20028;-73
2023/08/31 09:37:16;;;;;;;14.10;9.57;;;;;;;18.95;100.00;100921.84;5086222;27;20205;-72
2023/08/31 09:39:42;;;;;;;14.45;8.82;;;;;;;18.85;100.00;100934.53;5046035;27;20047;-73
2023/08/31 09:42:08;;;;;;;15.98;9.50;;;;;;;18.80;100.00;100931.44;5084020;27;20028;-73
2023/08/31 09:44:42;;;;;;;14.38;8.98;;;;;;;19.13;100.00;100930.84;5048300;27;20406;-73
2023/08/31 09:47:08;;;;;;;12.05;8.60;;;;;;;19.14;100.00;100935.25;5082690;27;20032;-72
2023/08/31 09:49:36;;;;;;;12.57;8.25;;;;;;;18.88;100.00;100939.66;5083962;27;20676;-73
2023/08/31 09:52:06;;;;;;;17.30;8.80;;;;;;;18.52;100.00;100928.63;5068146;27;20047;-72
2023/08/31 09:54:34;;;;;;;17.55;9.95;;;;;;;18.60;100.00;100934.16;5089611;27;20036;-72
2023/08/31 09:57:02;;;;;;;15.93;9.40;;;;;;;18.48;100.00;100932.66;5091905;27;20032;-73
2023/08/31 09:59:30;;;;;;;17.88;9.77;;;;;;;18.49;100.00;100933.50;5091344;27;20043;-73
2023/08/31 10:01:56;;;;;;;14.05;9.75;;;;;;;19.00;100.00;100930.34;5089735;27;20915;-72
2023/08/31 10:04:23;;;;;;;14.90;8.30;;;;;;;19.13;100.00;100930.84;5074320;28;20055;-72
2023/08/31 10:06:49;;;;;;;12.75;8.00;;;;;;;19.18;100.00;100924.13;5070805;27;20037;-72
2023/08/31 10:09:17;;;;;;;10.65;7.55;;;;;;;19.27;100.00;100921.38;5093913;27;20032;-72
2023/08/31 10:11:45;;;;;;;19.05;7.53;;;;;;;19.10;100.00;100924.88;5094456;27;20035;-72
2023/08/31 10:14:13;;;;;;;11.77;6.65;;;;;;;19.43;100.00;100918.00;5098539;27;20024;-72
2023/08/31 10:16:45;;;;;;;11.98;6.47;;;;;;;19.41;98.49;100914.59;5094341;27;20100;-72
2023/08/31 10:19:11;;;;;;;12.98;6.78;;;;;;;19.54;100.00;100922.34;5056420;27;20106;-72
2023/08/31 10:21:38;;;;;;;7.35;5.85;;;;;;;19.18;97.48;100922.28;5096414;27;20245;-73
2023/08/31 10:24:06;;;;;;;11.05;6.55;;;;;;;19.65;98.65;100914.03;5081439;27;20032;-72
2023/08/31 10:26:32;;;;;;;13.13;7.07;;;;;;;20.07;96.03;100921.50;5093436;27;20667;-72
2023/08/31 10:29:02;;;;;;;8.30;6.05;;;;;;;20.50;91.55;100919.81;5091743;27;20047;-73
2023/08/31 10:31:30;;;;;;;11.38;6.03;;;;;;;19.99;90.92;100916.03;5092656;27;20105;-73
2023/08/31 10:34:05;;;;;;;14.52;5.82;;;;;;;19.64;90.90;100907.78;5092407;27;20523;-74
2023/08/31 10:36:44;;;;;;;7.38;5.93;;;;;;;19.56;91.53;100909.50;5092021;27;20098;-73
2023/08/31 10:39:19;;;;;;;12.85;6.40;;;;;;;19.12;95.01;100915.63;5054132;27;20078;-73
2023/08/31 10:42:00;;;;;;;10.32;6.82;;;;;;;18.75;100.00;100912.97;5075336;27;20031;-72
2023/08/31 10:44:31;;;;;;;11.20;7.28;;;;;;;18.31;100.00;100918.03;5086793;27;20036;-72
2023/08/31 10:47:07;;;;;;;14.50;8.20;;;;;;;17.77;100.00;100926.75;5085904;27;20134;-73
2023/08/31 10:49:33;;;;;;;13.88;7.97;;;;;;;18.08;100.00;100927.47;5075974;27;20043;-74
2023/08/31 10:52:20;;;;;;;16.45;8.40;;;;;;;18.71;100.00;100916.94;5078763;27;20194;-73
2023/08/31 10:54:55;;;;;;;16.65;8.57;;;;;;;18.96;100.00;100911.88;5081382;27;20044;-73
2023/08/31 10:57:31;;;;;;;11.77;7.22;;;;;;;18.93;100.00;100915.75;5081329;27;20032;-74
2023/08/31 10:59:58;;;;;;;11.60;7.38;;;;;;;18.97;100.00;100917.13;5101304;27;20063;-71
2023/08/31 11:02:38;;;;;;;14.27;7.78;;;;;;;18.92;100.00;100921.28;5080912;27;20036;-71
2023/08/31 11:05:07;;;;;;;12.57;7.55;;;;;;;19.02;100.00;100914.81;5085212;27;20056;-71
2023/08/31 11:07:38;;;;;;;11.48;8.52;;;;;;;19.24;100.00;100908.16;5083584;27;20044;-72